createdAt,value
2023-04-18T00:00:46.925Z,8.9
2023-04-18T00:03:13.025Z,8.9
2023-04-18T00:05:39.120Z,8.9
2023-04-18T00:08:05.251Z,9
2023-04-18T00:10:31.306Z,9
2023-04-18T00:12:57.433Z,9
2023-04-18T00:15:23.483Z,9
2023-04-18T00:17:49.609Z,9
2023-04-18T00:20:15.696Z,9
2023-04-18T00:22:40.793Z,9
2023-04-18T00:27:32.982Z,9
2023-04-18T00:29:59.087Z,9
2023-04-18T00:32:24.210Z,9
2023-04-18T00:34:50.286Z,9
2023-04-18T00:37:16.399Z,9
2023-04-18T00:39:42.494Z,9
2023-04-18T00:42:08.585Z,9
2023-04-18T00:44:34.699Z,9
2023-04-18T00:47:00.794Z,9
2023-04-18T00:49:26.865Z,8.9
2023-04-18T00:51:52.983Z,8.9
2023-04-18T00:54:19.081Z,8.9
2023-04-18T00:56:45.160Z,8.8
2023-04-18T00:59:11.325Z,8.8
2023-04-18T01:01:37.392Z,8.8
2023-04-18T01:04:03.487Z,8.8
2023-04-18T01:06:29.590Z,8.8
2023-04-18T01:08:55.690Z,8.8
2023-04-18T01:11:21.762Z,8.8
2023-04-18T01:13:47.883Z,8.7
2023-04-18T01:16:13.945Z,8.7
2023-04-18T01:18:40.020Z,8.7
2023-04-18T01:21:06.140Z,8.7
2023-04-18T01:23:32.218Z,8.6
2023-04-18T01:25:58.340Z,8.6
2023-04-18T01:28:24.459Z,8.6
2023-04-18T01:30:50.511Z,8.5
2023-04-18T01:33:15.624Z,8.6
2023-04-18T01:35:40.745Z,8.5
2023-04-18T01:38:05.872Z,8.5
2023-04-18T01:40:30.974Z,8.5
2023-04-18T01:42:57.073Z,8.5
2023-04-18T01:45:23.169Z,8.5
2023-04-18T01:47:49.269Z,8.5
2023-04-18T01:50:15.364Z,8.4
2023-04-18T01:52:41.451Z,8.4
2023-04-18T01:55:07.540Z,8.4
2023-04-18T01:57:33.649Z,8.4
2023-04-18T01:59:59.751Z,8.4
2023-04-18T02:02:25.854Z,8.4
2023-04-18T02:04:51.923Z,8.3
2023-04-18T02:07:18.032Z,8.3
2023-04-18T02:09:44.127Z,8.3
2023-04-18T02:12:10.232Z,8.3
2023-04-18T02:14:36.332Z,8.4
2023-04-18T02:17:02.413Z,8.4
2023-04-18T02:19:28.526Z,8.5
2023-04-18T02:21:54.610Z,8.5
2023-04-18T02:24:20.698Z,8.5
2023-04-18T02:26:46.808Z,8.5
2023-04-18T02:29:12.882Z,8.5
2023-04-18T02:31:38.998Z,8.5
2023-04-18T02:34:05.108Z,8.5
2023-04-18T02:36:30.206Z,8.5
2023-04-18T02:38:55.362Z,8.5
2023-04-18T02:41:20.440Z,8.5
2023-04-18T02:43:45.554Z,8.5
2023-04-18T02:46:11.655Z,8.5
2023-04-18T02:48:36.782Z,8.4
2023-04-18T02:51:01.902Z,8.4
2023-04-18T02:53:27.979Z,8.5
2023-04-18T02:55:54.073Z,8.5
2023-04-18T02:58:20.170Z,8.5
2023-04-18T03:00:46.280Z,8.4
2023-04-18T03:03:12.355Z,8.4
2023-04-18T03:05:38.473Z,8.4
2023-04-18T03:08:04.553Z,8.4
2023-04-18T03:10:30.644Z,8.5
2023-04-18T03:12:56.730Z,8.4
2023-04-18T03:15:22.860Z,8.4
2023-04-18T03:17:48.952Z,8.4
2023-04-18T03:20:15.023Z,8.3
2023-04-18T03:22:40.142Z,8.4
2023-04-18T03:25:06.260Z,8.4
2023-04-18T03:27:32.344Z,8.4
2023-04-18T03:29:58.436Z,8.4
2023-04-18T03:32:24.524Z,8.4
2023-04-18T03:34:50.625Z,8.4
2023-04-18T03:37:16.733Z,8.4
2023-04-18T03:39:41.854Z,8.5
2023-04-18T03:42:06.989Z,8.5
2023-04-18T03:44:32.086Z,8.5
2023-04-18T03:46:57.193Z,8.5
2023-04-18T03:49:23.282Z,8.5
2023-04-18T03:51:49.416Z,8.6
2023-04-18T03:54:15.524Z,8.6
2023-04-18T03:56:41.592Z,8.6
2023-04-18T03:59:07.682Z,8.7
2023-04-18T04:01:33.787Z,8.7
2023-04-18T04:03:58.914Z,8.7
2023-04-18T04:06:24.031Z,8.7
2023-04-18T04:08:49.141Z,8.7
2023-04-18T04:11:14.247Z,8.7
2023-04-18T04:13:40.343Z,8.8
2023-04-18T04:16:06.434Z,8.7
2023-04-18T04:18:32.533Z,8.8
2023-04-18T04:20:58.647Z,8.8
2023-04-18T04:23:24.724Z,8.8
2023-04-18T04:25:50.826Z,8.7
2023-04-18T04:28:16.920Z,8.8
2023-04-18T04:30:43.010Z,8.8
2023-04-18T04:33:09.114Z,8.8
2023-04-18T04:35:35.186Z,8.8
2023-04-18T04:38:01.285Z,8.8
2023-04-18T04:40:27.396Z,8.8
2023-04-18T04:42:52.502Z,8.8
2023-04-18T04:45:18.587Z,8.8
2023-04-18T04:47:44.683Z,8.8
2023-04-18T04:50:10.809Z,8.8
2023-04-18T04:52:36.881Z,8.8
2023-04-18T04:55:02.986Z,8.9
2023-04-18T04:57:29.068Z,8.9
2023-04-18T04:59:54.193Z,8.9
2023-04-18T05:02:19.305Z,9
2023-04-18T05:04:45.404Z,9
2023-04-18T05:07:11.502Z,9
2023-04-18T05:09:37.622Z,9
2023-04-18T05:12:03.695Z,9
2023-04-18T05:14:29.787Z,9
2023-04-18T05:16:55.902Z,9
2023-04-18T05:19:21.976Z,9.1
2023-04-18T05:21:48.088Z,9.1
2023-04-18T05:24:14.202Z,9.1
2023-04-18T05:26:40.264Z,9.1
2023-04-18T05:29:06.365Z,9.1
2023-04-18T05:31:32.461Z,9.1
2023-04-18T05:33:57.618Z,9.2
2023-04-18T05:36:23.682Z,9.2
2023-04-18T05:38:49.778Z,9.2
2023-04-18T05:41:15.865Z,9.2
2023-04-18T05:43:41.971Z,9.2
2023-04-18T05:46:08.058Z,9.3
2023-04-18T05:48:34.189Z,9.3
2023-04-18T05:50:59.295Z,9.3
2023-04-18T05:53:24.408Z,9.3
2023-04-18T05:55:49.547Z,9.3
2023-04-18T05:58:14.628Z,9.3
2023-04-18T06:00:40.792Z,9.3
2023-04-18T06:03:06.812Z,9.3
2023-04-18T06:05:32.987Z,9.4
2023-04-18T06:07:59.023Z,9.4
2023-04-18T06:10:25.107Z,9.5
2023-04-18T06:12:51.214Z,9.5
2023-04-18T06:15:17.316Z,9.7
2023-04-18T06:17:43.390Z,9.7
2023-04-18T06:20:09.506Z,9.8
2023-04-18T06:22:35.607Z,9.8
2023-04-18T06:25:01.675Z,9.8
2023-04-18T06:27:27.977Z,9.9
2023-04-18T06:29:52.863Z,9.8
2023-04-18T06:32:19.056Z,9.9
2023-04-18T06:34:45.078Z,9.9
2023-04-18T06:37:11.221Z,9.9
2023-04-18T06:39:37.340Z,9.9
2023-04-18T06:42:03.496Z,9.9
2023-04-18T06:44:29.486Z,9.9
2023-04-18T06:46:54.650Z,9.9
2023-04-18T06:49:19.745Z,10
2023-04-18T06:51:45.817Z,10.1
2023-04-18T06:54:11.984Z,10
2023-04-18T06:56:38.057Z,10.1
2023-04-18T06:59:04.114Z,10.1
2023-04-18T07:01:30.248Z,10.1
2023-04-18T07:03:56.369Z,10.1
2023-04-18T07:06:22.477Z,10.2
2023-04-18T07:08:48.462Z,10.2
2023-04-18T07:11:14.674Z,10.2
2023-04-18T07:13:40.676Z,10.3
2023-04-18T07:16:06.819Z,10.3
2023-04-18T07:18:32.859Z,10.2
2023-04-18T07:20:58.141Z,10.2
2023-04-18T07:23:24.085Z,10.2
2023-04-18T07:25:50.152Z,10.2
2023-04-18T07:28:16.276Z,10.2
2023-04-18T07:30:42.406Z,10.2
2023-04-18T07:33:08.630Z,10.2
2023-04-18T07:35:34.517Z,10.2
2023-04-18T07:37:59.651Z,10.2
2023-04-18T07:40:24.863Z,10.3
2023-04-18T07:42:49.894Z,10.4
2023-04-18T07:45:15.075Z,10.5
2023-04-18T07:47:40.120Z,10.7
2023-04-18T07:50:05.231Z,10.8
2023-04-18T07:52:31.395Z,10.9
2023-04-18T07:54:57.483Z,11
2023-04-18T07:57:23.780Z,11.1
2023-04-18T07:59:49.823Z,11.2
2023-04-18T08:02:15.836Z,11.2
2023-04-18T08:04:41.872Z,11.3
2023-04-18T08:07:07.913Z,11.4
2023-04-18T08:09:34.043Z,11.4
2023-04-18T08:12:00.082Z,11.4
2023-04-18T08:14:26.191Z,11.5
2023-04-18T08:16:52.296Z,11.6
2023-04-18T08:19:18.393Z,11.6
2023-04-18T08:21:43.506Z,11.7
2023-04-18T08:24:09.598Z,11.9
2023-04-18T08:26:35.679Z,12.1
2023-04-18T08:29:01.825Z,12.2
2023-04-18T08:33:54.047Z,12.1
2023-04-18T08:36:20.094Z,12
2023-04-18T08:38:46.202Z,12.1
2023-04-18T08:41:11.335Z,12
2023-04-18T08:43:36.444Z,12.1
2023-04-18T08:46:01.543Z,12.1
2023-04-18T08:48:26.659Z,12.1
2023-04-18T08:50:52.736Z,12
2023-04-18T08:53:17.889Z,12.1
2023-04-18T08:55:43.043Z,12.3
2023-04-18T08:58:09.201Z,12.2
2023-04-18T09:00:35.175Z,12.3
2023-04-18T09:03:01.260Z,12.3
2023-04-18T09:05:27.379Z,12.3
2023-04-18T09:07:53.453Z,12.4
2023-04-18T09:10:19.550Z,12.3
2023-04-18T09:12:45.637Z,12.3
2023-04-18T09:15:11.741Z,12.4
2023-04-18T09:17:37.822Z,12.4
2023-04-18T09:20:03.931Z,12.4
2023-04-18T09:22:30.000Z,12.5
2023-04-18T09:24:56.120Z,12.7
2023-04-18T09:27:21.218Z,12.9
2023-04-18T09:29:47.319Z,12.9
2023-04-18T09:32:13.413Z,13.1
2023-04-18T09:34:39.493Z,13.2
2023-04-18T09:37:05.625Z,13.3
2023-04-18T09:39:31.723Z,13.4
2023-04-18T09:41:57.800Z,13.4
2023-04-18T09:44:22.941Z,13.5
2023-04-18T09:46:48.035Z,13.4
2023-04-18T09:49:14.139Z,13.4
2023-04-18T09:51:39.249Z,13.2
2023-04-18T09:54:04.372Z,13.3
2023-04-18T09:56:30.466Z,13.4
2023-04-18T09:58:56.688Z,13.5
2023-04-18T10:01:22.639Z,13.6
2023-04-18T10:03:48.755Z,13.7
2023-04-18T10:06:14.879Z,13.8
2023-04-18T10:08:40.941Z,13.9
2023-04-18T10:11:07.039Z,14.1
2023-04-18T10:13:33.136Z,14.4
2023-04-18T10:15:59.259Z,14.6
2023-04-18T10:18:25.322Z,14.7
2023-04-18T10:20:51.405Z,14.8
2023-04-18T10:23:17.494Z,14.8
2023-04-18T10:25:42.657Z,14.7
2023-04-18T10:28:08.768Z,14.7
2023-04-18T10:30:34.855Z,14.9
2023-04-18T10:33:00.944Z,15
2023-04-18T10:35:27.037Z,15
2023-04-18T10:37:53.227Z,14.9
2023-04-18T10:40:19.225Z,15.1
2023-04-18T10:42:44.377Z,14.9
2023-04-18T10:45:09.497Z,14.9
2023-04-18T10:47:34.591Z,14.9
2023-04-18T10:49:59.650Z,14.9
2023-04-18T10:52:25.767Z,14.9
2023-04-18T10:54:51.837Z,14.9
2023-04-18T10:57:17.941Z,15
2023-04-18T10:59:44.040Z,15.1
2023-04-18T11:02:10.131Z,15.3
2023-04-18T11:04:36.321Z,15.6
2023-04-18T11:07:02.333Z,15.7
2023-04-18T11:09:28.415Z,15.5
2023-04-18T11:11:54.504Z,15.4
2023-04-18T11:14:20.856Z,15.2
2023-04-18T11:16:46.891Z,15.1
2023-04-18T11:19:12.852Z,14.8
2023-04-18T11:21:37.982Z,14.6
2023-04-18T11:24:04.045Z,14.5
2023-04-18T11:26:30.242Z,14.5
2023-04-18T11:28:56.283Z,14.6
2023-04-18T11:31:22.465Z,14.7
2023-04-18T11:33:48.391Z,14.9
2023-04-18T11:36:14.497Z,15
2023-04-18T11:38:40.581Z,15.1
2023-04-18T11:41:06.713Z,15.1
2023-04-18T11:43:32.829Z,15.2
2023-04-18T11:45:58.872Z,15.1
2023-04-18T11:48:24.959Z,15.2
2023-04-18T11:50:51.055Z,15.2
2023-04-18T11:53:17.169Z,15.2
2023-04-18T11:55:42.322Z,15.3
2023-04-18T11:58:07.416Z,15.4
2023-04-18T12:00:32.582Z,15.4
2023-04-18T12:02:57.675Z,15.6
2023-04-18T12:05:22.779Z,15.8
2023-04-18T12:07:47.936Z,15.8
2023-04-18T12:10:13.950Z,15.8
2023-04-18T12:12:40.058Z,15.8
2023-04-18T12:15:06.178Z,15.7
2023-04-18T12:17:32.248Z,15.7
2023-04-18T12:19:58.358Z,15.8
2023-04-18T12:22:24.440Z,15.8
2023-04-18T12:24:50.523Z,15.7
2023-04-18T12:27:16.609Z,15.6
2023-04-18T12:29:42.715Z,15.6
2023-04-18T12:32:08.808Z,15.5
2023-04-18T12:34:34.913Z,15.7
2023-04-18T12:37:01.005Z,15.9
2023-04-18T12:39:26.102Z,15.9
2023-04-18T12:41:52.215Z,16.1
2023-04-18T12:44:18.294Z,16.2
2023-04-18T12:46:44.385Z,16.3
2023-04-18T12:49:10.491Z,16.2
2023-04-18T12:51:36.578Z,16.1
2023-04-18T12:54:02.669Z,16
2023-04-18T12:56:28.779Z,16
2023-04-18T12:58:54.857Z,16.1
2023-04-18T13:01:19.983Z,16.1
2023-04-18T13:03:45.092Z,16.1
2023-04-18T13:06:11.196Z,16.1
2023-04-18T13:08:37.339Z,16
2023-04-18T13:11:03.369Z,16
2023-04-18T13:13:29.476Z,16
2023-04-18T13:15:55.558Z,16.2
2023-04-18T13:18:21.669Z,16.2
2023-04-18T13:20:47.780Z,16.2
2023-04-18T13:23:13.858Z,16.3
2023-04-18T13:25:39.959Z,16.2
2023-04-18T13:28:06.053Z,15.9
2023-04-18T13:30:32.139Z,15.9
2023-04-18T13:32:58.249Z,15.9
2023-04-18T13:35:23.338Z,15.9
2023-04-18T13:37:49.436Z,16
2023-04-18T13:40:15.532Z,16
2023-04-18T13:42:41.628Z,16
2023-04-18T13:45:07.725Z,15.8
2023-04-18T13:47:33.822Z,15.7
2023-04-18T13:49:59.921Z,15.6
2023-04-18T13:52:25.045Z,15.6
2023-04-18T13:54:50.144Z,15.6
2023-04-18T13:57:15.265Z,15.7
2023-04-18T13:59:40.381Z,15.8
2023-04-18T14:02:06.494Z,15.8
2023-04-18T14:04:32.574Z,15.7
2023-04-18T14:06:58.665Z,15.7
2023-04-18T14:09:24.759Z,15.7
2023-04-18T14:11:50.858Z,15.8
2023-04-18T14:14:16.954Z,15.8
2023-04-18T14:16:43.051Z,15.8
2023-04-18T14:19:09.138Z,15.9
2023-04-18T14:21:35.237Z,16
2023-04-18T14:24:01.337Z,16
2023-04-18T14:26:27.426Z,16.1
2023-04-18T14:28:53.513Z,16.1
2023-04-18T14:31:18.620Z,16.2
2023-04-18T14:33:44.880Z,16.3
2023-04-18T14:36:10.841Z,16.3
2023-04-18T14:38:36.896Z,16.3
2023-04-18T14:41:03.066Z,16.3
2023-04-18T14:43:29.198Z,16.4
2023-04-18T14:45:55.210Z,16.5
2023-04-18T14:48:21.314Z,16.6
2023-04-18T14:50:46.518Z,16.6
2023-04-18T14:53:11.685Z,16.6
2023-04-18T14:55:36.797Z,16.6
2023-04-18T14:58:01.830Z,16.5
2023-04-18T15:00:26.982Z,16.4
2023-04-18T15:02:51.999Z,16.5
2023-04-18T15:05:18.088Z,18.3
2023-04-18T15:07:44.201Z,17.9
2023-04-18T15:10:10.284Z,17.9
2023-04-18T15:12:36.382Z,17.5
2023-04-18T15:15:02.465Z,17.1
2023-04-18T15:17:28.575Z,16.6
2023-04-18T15:19:54.669Z,16.4
2023-04-18T15:22:20.779Z,16.3
2023-04-18T15:24:46.848Z,16.2
2023-04-18T15:27:12.962Z,16.1
2023-04-18T15:29:39.045Z,16.1
2023-04-18T15:32:05.148Z,16
2023-04-18T15:34:30.251Z,15.9
2023-04-18T15:36:56.486Z,15.9
2023-04-18T15:39:22.494Z,15.9
2023-04-18T15:41:48.530Z,15.8
2023-04-18T15:44:14.637Z,15.7
2023-04-18T15:46:40.737Z,15.6
2023-04-18T15:49:06.819Z,15.5
2023-04-18T15:51:31.951Z,15.4
2023-04-18T15:53:57.057Z,15.4
2023-04-18T15:56:22.189Z,15.3
2023-04-18T15:58:47.337Z,15.3
2023-04-18T16:01:13.374Z,15.2
2023-04-18T16:03:39.480Z,15.1
2023-04-18T16:06:05.613Z,15
2023-04-18T16:08:31.680Z,15
2023-04-18T16:10:57.754Z,14.9
2023-04-18T16:13:23.851Z,14.9
2023-04-18T16:15:49.946Z,14.8
2023-04-18T16:18:16.048Z,14.7
2023-04-18T16:20:42.146Z,14.7
2023-04-18T16:23:08.243Z,14.7
2023-04-18T16:25:34.337Z,14.7
2023-04-18T16:28:00.442Z,14.6
2023-04-18T16:30:26.542Z,14.6
2023-04-18T16:32:52.643Z,14.6
2023-04-18T16:35:18.813Z,14.6
2023-04-18T16:37:44.823Z,14.6
2023-04-18T16:40:10.933Z,14.6
2023-04-18T16:42:37.081Z,14.6
2023-04-18T16:45:03.143Z,14.6
2023-04-18T16:47:29.185Z,14.5
2023-04-18T16:49:55.295Z,14.5
2023-04-18T16:52:21.383Z,14.5
2023-04-18T16:54:47.521Z,14.5
2023-04-18T16:57:13.588Z,14.5
2023-04-18T16:59:39.703Z,14.5
2023-04-18T17:02:05.892Z,14.5
2023-04-18T17:04:31.901Z,14.4
2023-04-18T17:06:57.983Z,14.4
2023-04-18T17:09:24.119Z,14.3
2023-04-18T17:11:49.236Z,14.3
2023-04-18T17:14:15.280Z,14.2
2023-04-18T17:16:41.364Z,14.2
2023-04-18T17:19:07.470Z,14.2
2023-04-18T17:21:33.618Z,14.1
2023-04-18T17:23:59.643Z,14.1
2023-04-18T17:26:25.780Z,14.1
2023-04-18T17:28:51.855Z,14
2023-04-18T17:31:17.935Z,14
2023-04-18T17:33:44.103Z,14
2023-04-18T17:36:10.133Z,14
2023-04-18T17:38:35.246Z,14
2023-04-18T17:41:01.332Z,14
2023-04-18T17:43:27.460Z,14
2023-04-18T17:45:53.536Z,14
2023-04-18T17:48:19.628Z,13.9
2023-04-18T17:50:45.708Z,14
2023-04-18T17:53:11.810Z,13.9
2023-04-18T17:55:37.910Z,13.9
2023-04-18T17:58:04.027Z,13.9
2023-04-18T18:00:30.099Z,13.9
2023-04-18T18:02:56.179Z,13.9
2023-04-18T18:05:22.392Z,13.8
2023-04-18T18:07:48.390Z,13.8
2023-04-18T18:10:14.495Z,13.8
2023-04-18T18:12:40.597Z,13.8
2023-04-18T18:15:06.671Z,13.7
2023-04-18T18:17:32.781Z,13.7
2023-04-18T18:19:58.880Z,13.7
2023-04-18T18:22:24.950Z,13.7
2023-04-18T18:24:51.064Z,13.7
2023-04-18T18:27:16.198Z,13.6
2023-04-18T18:29:41.331Z,13.6
2023-04-18T18:32:06.415Z,13.6
2023-04-18T18:34:31.561Z,13.5
2023-04-18T18:36:56.650Z,13.5
2023-04-18T18:39:21.781Z,13.5
2023-04-18T18:41:47.871Z,13.5
2023-04-18T18:44:13.955Z,13.4
2023-04-18T18:46:40.067Z,13.4
2023-04-18T18:49:06.157Z,13.3
2023-04-18T18:51:32.232Z,13.3
2023-04-18T18:53:58.341Z,13.2
2023-04-18T18:56:24.456Z,13.2
2023-04-18T18:58:50.530Z,13.2
2023-04-18T19:01:16.625Z,13.1
2023-04-18T19:03:42.733Z,13.1
2023-04-18T19:06:08.856Z,13.1
2023-04-18T19:08:34.958Z,13.1
2023-04-18T19:11:00.033Z,13.1
2023-04-18T19:13:26.133Z,13
2023-04-18T19:15:52.227Z,13
2023-04-18T19:18:18.352Z,13
2023-04-18T19:20:44.405Z,12.9
2023-04-18T19:23:10.540Z,12.9
2023-04-18T19:25:36.634Z,12.9
2023-04-18T19:28:01.733Z,12.9
2023-04-18T19:30:26.856Z,12.9
2023-04-18T19:32:51.981Z,12.9
2023-04-18T19:35:17.076Z,12.9
2023-04-18T19:37:43.169Z,12.8
2023-04-18T19:40:09.273Z,12.8
2023-04-18T19:42:35.413Z,12.8
2023-04-18T19:45:01.518Z,12.8
2023-04-18T19:47:27.576Z,12.7
2023-04-18T19:49:53.647Z,12.7
2023-04-18T19:52:19.717Z,12.7
2023-04-18T19:54:45.841Z,12.7
2023-04-18T19:57:11.933Z,12.6
2023-04-18T19:59:38.018Z,12.6
2023-04-18T20:02:04.123Z,12.6
2023-04-18T20:04:30.245Z,12.6
2023-04-18T20:06:55.340Z,12.6
2023-04-18T20:09:21.599Z,12.6
2023-04-18T20:11:47.558Z,12.5
2023-04-18T20:14:13.601Z,12.5
2023-04-18T20:16:39.718Z,12.5
2023-04-18T20:19:05.844Z,12.5
2023-04-18T20:21:31.920Z,12.5
2023-04-18T20:23:57.028Z,12.4
2023-04-18T20:26:22.185Z,12.4
2023-04-18T20:28:47.258Z,12.4
2023-04-18T20:31:12.404Z,12.4
2023-04-18T20:33:38.463Z,12.4
2023-04-18T20:36:04.553Z,12.3
2023-04-18T20:38:30.650Z,12.3
2023-04-18T20:40:56.832Z,12.3
2023-04-18T20:43:22.845Z,12.3
2023-04-18T20:45:48.941Z,12.3
2023-04-18T20:48:15.047Z,12.3
2023-04-18T20:50:40.207Z,12.3
2023-04-18T20:53:05.281Z,12.2
2023-04-18T20:55:31.415Z,12.2
2023-04-18T20:57:57.489Z,12.2
2023-04-18T21:00:23.572Z,12.2
2023-04-18T21:02:49.636Z,12.1
2023-04-18T21:05:15.750Z,12.1
2023-04-18T21:07:41.845Z,12.1
2023-04-18T21:10:07.940Z,12.1
2023-04-18T21:12:34.028Z,12.1
2023-04-18T21:15:00.188Z,12
2023-04-18T21:17:26.226Z,12
2023-04-18T21:19:52.442Z,12
2023-04-18T21:22:18.407Z,12
2023-04-18T21:24:43.558Z,12
2023-04-18T21:27:09.703Z,12
2023-04-18T21:29:35.720Z,12
2023-04-18T21:32:01.812Z,12
2023-04-18T21:34:27.926Z,12
2023-04-18T21:36:54.014Z,11.9
2023-04-18T21:39:20.100Z,11.9
2023-04-18T21:41:45.281Z,11.9
2023-04-18T21:44:10.409Z,11.9
2023-04-18T21:46:35.527Z,11.9
2023-04-18T21:49:00.588Z,11.9
2023-04-18T21:51:25.704Z,11.9
2023-04-18T21:53:50.936Z,11.9
2023-04-18T21:56:16.935Z,11.9
2023-04-18T21:58:43.051Z,11.9
2023-04-18T22:01:09.183Z,11.9
2023-04-18T22:03:35.215Z,11.9
2023-04-18T22:06:01.269Z,11.8
2023-04-18T22:08:27.392Z,11.8
2023-04-18T22:10:53.470Z,11.8
2023-04-18T22:13:19.620Z,11.8
2023-04-18T22:15:45.670Z,11.8
2023-04-18T22:18:11.746Z,11.8
2023-04-18T22:20:37.853Z,11.8
2023-04-18T22:23:03.964Z,11.8
2023-04-18T22:25:29.054Z,11.8
2023-04-18T22:27:55.143Z,11.7
2023-04-18T22:30:21.292Z,11.7
2023-04-18T22:32:47.417Z,11.7
2023-04-18T22:35:13.451Z,11.7
2023-04-18T22:37:39.594Z,11.6
2023-04-18T22:40:05.640Z,11.6
2023-04-18T22:42:31.746Z,11.6
2023-04-18T22:44:57.816Z,11.6
2023-04-18T22:47:23.048Z,11.5
2023-04-18T22:49:48.081Z,11.6
2023-04-18T22:52:14.142Z,11.6
2023-04-18T22:54:40.256Z,11.5
2023-04-18T22:57:06.331Z,11.5
2023-04-18T22:59:32.593Z,11.5
2023-04-18T23:01:58.546Z,11.5
2023-04-18T23:04:24.650Z,11.5
2023-04-18T23:06:50.768Z,11.5
2023-04-18T23:09:16.984Z,11.5
2023-04-18T23:11:42.955Z,11.5
2023-04-18T23:14:09.056Z,11.5
2023-04-18T23:16:35.146Z,11.5
2023-04-18T23:19:01.259Z,11.5
2023-04-18T23:21:26.352Z,11.5
2023-04-18T23:23:52.447Z,11.4
2023-04-18T23:26:18.608Z,11.4
2023-04-18T23:28:44.726Z,11.4
2023-04-18T23:31:10.727Z,11.4
2023-04-18T23:33:36.804Z,11.4
2023-04-18T23:36:02.907Z,11.4
2023-04-18T23:38:28.030Z,11.4
2023-04-18T23:40:53.135Z,11.4
2023-04-18T23:43:18.259Z,11.4
2023-04-18T23:45:43.373Z,11.4
2023-04-18T23:48:08.463Z,11.3
2023-04-18T23:50:33.575Z,11.3
2023-04-18T23:52:59.677Z,11.3
2023-04-18T23:55:25.795Z,11.3
2023-04-18T23:57:51.945Z,11.2
